Oasis 1 — 3EMO8 — position and weather

sailwx.info

Track history (hours):
 
Tides and Currents Weather Stations Pressure Air Temp Water Temp Dewpoint Dewpoint Depression Visibility Wind Speed Wind Dir Waves Ship Positions

Oasis 1

Last reported at 2017-Oct-17 23:52 UTC. Time now 2017-Oct-20 08:37 UTC.
Position N 36°01' E 020°50'.

Length 109 m; draft 4.2 m.

Type: Tanker. MMSI: 356057000.

Date/timePositionNaut miles runAvg speedWind from/ knotsBaromVisibWave heightAir tempDewpointWater temp
2017-Oct-17 23:52N 36°01' E 020°50'3 7.6
2017-Oct-17 23:30N 36°01' E 020°54'6 7.8
2017-Oct-17 22:46N 36°01' E 021°01'2 8.0
2017-Oct-17 22:31N 36°01' E 021°03'4 8.0
2017-Oct-17 22:00N 36°01' E 021°08'4 7.9
2017-Oct-17 21:30N 36°01' E 021°13'122 5.9
2017-Oct-17 00:51N 36°60' E 023°27'38 7.1
2017-Oct-16 19:32N 37°35' E 023°45'3 7.9
2017-Oct-16 19:07N 37°38' E 023°43'2 7.8
2017-Oct-16 18:54N 37°39' E 023°42'3 7.7
2017-Oct-16 18:30N 37°42' E 023°41'4 7.8
2017-Oct-16 18:01N 37°46' E 023°39'4 7.6
2017-Oct-16 17:30N 37°49' E 023°36'4 7.4
2017-Oct-16 17:00N 37°52' E 023°34'1 2.6
2017-Oct-16 16:29N 37°52' E 023°32'0 0.0
2017-Oct-16 15:59N 37°52' E 023°32'0 0.0
2017-Oct-16 15:29N 37°52' E 023°32'0 0.0
2017-Oct-16 14:59N 37°52' E 023°32'0 0.1
2017-Oct-16 14:29N 37°53' E 023°32'0 0.1
2017-Oct-16 13:29N 37°52' E 023°32'0 0.0
2017-Oct-16 12:56N 37°52' E 023°32'0 0.0
2017-Oct-16 12:29N 37°52' E 023°32'0 0.0
2017-Oct-16 11:59N 37°52' E 023°32'0 0.1
2017-Oct-16 11:29N 37°52' E 023°32'0 0.1
2017-Oct-16 10:59N 37°52' E 023°32'0 0.0
2017-Oct-16 10:30N 37°52' E 023°32'0 0.0
2017-Oct-16 09:57N 37°52' E 023°32'0 0.0
2017-Oct-16 09:30N 37°52' E 023°32'0 0.0
2017-Oct-16 08:57N 37°52' E 023°32'0 0.0
2017-Oct-16 08:30N 37°52' E 023°32'0 0.0
2017-Oct-16 07:59N 37°52' E 023°32'0 0.0
2017-Oct-16 07:29N 37°52' E 023°32'0 0.0
2017-Oct-16 06:59N 37°52' E 023°32'0 0.0
2017-Oct-16 06:29N 37°52' E 023°32'0 0.0
2017-Oct-16 05:59N 37°52' E 023°32'0 0.0
2017-Oct-16 05:29N 37°52' E 023°32'0 0.0
2017-Oct-16 04:59N 37°52' E 023°32'0 0.0
2017-Oct-16 04:29N 37°52' E 023°32'0 0.0
2017-Oct-16 03:59N 37°52' E 023°32'0 0.0
2017-Oct-16 03:29N 37°52' E 023°32'0 0.1
2017-Oct-16 02:59N 37°52' E 023°32'0 0.0
2017-Oct-16 02:29N 37°52' E 023°32'0 0.0
2017-Oct-16 01:59N 37°52' E 023°32'0 0.0
2017-Oct-16 01:29N 37°52' E 023°32'0 0.0
2017-Oct-16 00:59N 37°52' E 023°32'0 0.0
2017-Oct-16 00:29N 37°52' E 023°32'0 0.1
2017-Oct-15 23:59N 37°52' E 023°32'0 0.0
2017-Oct-15 23:29N 37°52' E 023°32'0 0.0
2017-Oct-15 22:59N 37°52' E 023°32'0 0.0
2017-Oct-15 22:29N 37°52' E 023°32'0 0.0
2017-Oct-15 21:59N 37°52' E 023°32'0 0.0
2017-Oct-15 21:29N 37°52' E 023°32'0 0.0
2017-Oct-15 20:56N 37°52' E 023°32'0 0.0
2017-Oct-15 20:29N 37°52' E 023°32'0 0.0
2017-Oct-15 19:59N 37°52' E 023°32'0 0.0
2017-Oct-15 19:29N 37°52' E 023°32'0 0.0
2017-Oct-15 18:59N 37°52' E 023°32'0 0.0
2017-Oct-15 18:29N 37°52' E 023°32'0 0.0
2017-Oct-15 17:59N 37°52' E 023°32'0 0.0
2017-Oct-15 17:29N 37°52' E 023°32'0 0.0
2017-Oct-15 16:59N 37°52' E 023°32'0 0.0
2017-Oct-15 16:29N 37°52' E 023°32'0 0.0
2017-Oct-15 15:59N 37°52' E 023°32'0 0.0
2017-Oct-15 15:29N 37°52' E 023°32'0 0.0
2017-Oct-15 14:59N 37°52' E 023°32'0 0.0
2017-Oct-15 14:00N 37°52' E 023°32'0 0.2
2017-Oct-15 13:30N 37°52' E 023°32'0 0.2
2017-Oct-15 13:00N 37°52' E 023°32'0 0.0
2017-Oct-15 12:27N 37°52' E 023°32'0 0.1
2017-Oct-15 12:00N 37°52' E 023°32'0 0.1
2017-Oct-15 11:30N 37°52' E 023°32'0 0.1
2017-Oct-15 11:00N 37°52' E 023°32'0 0.0
2017-Oct-15 10:30N 37°52' E 023°32'0 0.1
2017-Oct-15 10:00N 37°52' E 023°32'0 0.1
2017-Oct-15 09:30N 37°52' E 023°32'0 0.1
2017-Oct-15 09:00N 37°52' E 023°32'0 0.0
2017-Oct-15 08:30N 37°52' E 023°32'0 0.0
2017-Oct-15 08:00N 37°52' E 023°32'0 0.0
2017-Oct-15 07:30N 37°52' E 023°32'0 0.0
2017-Oct-15 07:00N 37°52' E 023°32'0 0.0
2017-Oct-15 06:30N 37°52' E 023°32'0 0.0
2017-Oct-15 06:00N 37°52' E 023°32'0 0.0
2017-Oct-15 05:30N 37°52' E 023°32'0 0.0
2017-Oct-15 05:00N 37°52' E 023°32'0 0.1
2017-Oct-15 04:30N 37°52' E 023°32'0 0.1
2017-Oct-15 04:00N 37°52' E 023°32'0 0.1
2017-Oct-15 03:30N 37°52' E 023°32'0 0.1
2017-Oct-15 03:00N 37°52' E 023°32'0 0.0
2017-Oct-15 02:30N 37°52' E 023°32'0 0.0
2017-Oct-15 02:00N 37°52' E 023°32'0 0.0
2017-Oct-15 01:27N 37°52' E 023°32'0 0.0
2017-Oct-15 01:00N 37°52' E 023°32'0 0.1
2017-Oct-15 00:30N 37°52' E 023°32'0 0.0
2017-Oct-15 00:00N 37°52' E 023°32'0 0.0
2017-Oct-14 23:30N 37°52' E 023°32'0 0.0
2017-Oct-14 23:00N 37°52' E 023°32'0 0.0
2017-Oct-14 22:30N 37°52' E 023°32'0 0.0
2017-Oct-14 22:00N 37°52' E 023°32'0 0.0
2017-Oct-14 21:30N 37°52' E 023°32'0 0.0
2017-Oct-14 21:00N 37°52' E 023°32'0 0.1
2017-Oct-14 20:27N 37°53' E 023°32'0 0.0
2017-Oct-14 20:00N 37°53' E 023°32'0 0.0
2017-Oct-14 19:30N 37°53' E 023°32'0 0.0
2017-Oct-14 19:00N 37°53' E 023°32'0 0.0
2017-Oct-14 18:30N 37°53' E 023°32'0 0.1
2017-Oct-14 18:00N 37°53' E 023°32'0 0.0
2017-Oct-14 17:30N 37°53' E 023°32'0 0.1
2017-Oct-14 17:00N 37°52' E 023°32'0 0.1
2017-Oct-14 16:30N 37°52' E 023°32'0 0.1
2017-Oct-14 16:00N 37°52' E 023°32'0 0.0
2017-Oct-14 15:30N 37°52' E 023°32'0 0.0
2017-Oct-14 15:00N 37°52' E 023°32'0 0.0
2017-Oct-14 14:30N 37°52' E 023°32'0 0.0
2017-Oct-14 14:00N 37°52' E 023°32'0 0.0
2017-Oct-14 13:30N 37°52' E 023°32'0 0.0
2017-Oct-14 13:00N 37°52' E 023°32'0 0.0
2017-Oct-14 12:30N 37°52' E 023°32'0 0.0
2017-Oct-14 11:57N 37°52' E 023°32'0 0.0
2017-Oct-14 11:30N 37°52' E 023°32'0 0.0
2017-Oct-14 11:00N 37°52' E 023°32'0 0.0
2017-Oct-14 10:30N 37°52' E 023°32'0 0.0
2017-Oct-14 10:00N 37°52' E 023°32'0 0.0
2017-Oct-14 09:30N 37°52' E 023°32'0 0.1
2017-Oct-14 09:00N 37°52' E 023°32'0 0.0
2017-Oct-14 08:30N 37°52' E 023°32'0 0.0
2017-Oct-14 08:00N 37°52' E 023°32'0 0.0
2017-Oct-14 07:30N 37°52' E 023°32'0 0.1
2017-Oct-14 07:00N 37°52' E 023°32'0 0.0
2017-Oct-14 06:30N 37°52' E 023°32'0 0.0
2017-Oct-14 06:00N 37°52' E 023°32'0 0.0
2017-Oct-14 05:30N 37°52' E 023°32'0 0.0
2017-Oct-14 05:00N 37°52' E 023°32'0 0.0
2017-Oct-14 04:30N 37°52' E 023°32'0 0.0
2017-Oct-14 04:00N 37°52' E 023°32'0 0.1
2017-Oct-14 03:30N 37°52' E 023°32'0 0.0
2017-Oct-14 03:00N 37°52' E 023°32'0 0.0
2017-Oct-14 02:30N 37°52' E 023°32'0 0.0
2017-Oct-14 02:00N 37°52' E 023°32'0 0.0
2017-Oct-14 01:30N 37°52' E 023°32'0 0.0
2017-Oct-14 01:00N 37°52' E 023°32'0 0.0
2017-Oct-14 00:30N 37°52' E 023°32'0 0.0
2017-Oct-14 00:00N 37°52' E 023°32'0 0.1
2017-Oct-13 23:30N 37°52' E 023°32'0 0.0
2017-Oct-13 23:00N 37°52' E 023°32'0 0.0
2017-Oct-13 22:30N 37°52' E 023°32'0 0.0
2017-Oct-13 22:00N 37°52' E 023°32'0 0.0
2017-Oct-13 21:30N 37°52' E 023°32'0 0.1
2017-Oct-13 21:00N 37°52' E 023°32'0 0.1
2017-Oct-13 20:30N 37°52' E 023°32'0 0.0
2017-Oct-13 20:00N 37°52' E 023°32'0 0.0
2017-Oct-13 19:30N 37°52' E 023°32'0 0.0
2017-Oct-13 19:00N 37°52' E 023°32'0 0.0
2017-Oct-13 18:30N 37°52' E 023°32'0 0.0
2017-Oct-13 18:00N 37°52' E 023°32'0 0.1
2017-Oct-13 17:30N 37°52' E 023°32'0 0.0
2017-Oct-13 17:00N 37°52' E 023°32'0 0.0
2017-Oct-13 16:30N 37°52' E 023°32'0 0.0
2017-Oct-13 16:00N 37°52' E 023°32'0 0.0
2017-Oct-13 15:30N 37°52' E 023°32'0 0.0
2017-Oct-13 15:00N 37°52' E 023°32'0 0.0
2017-Oct-13 14:30N 37°52' E 023°32'0 0.0
2017-Oct-13 14:00N 37°52' E 023°32'0 0.1
2017-Oct-13 13:30N 37°52' E 023°32'0 0.1
2017-Oct-13 13:00N 37°52' E 023°32'0 0.0
2017-Oct-13 12:30N 37°52' E 023°32'0 0.0
2017-Oct-13 11:57N 37°52' E 023°32'0 0.1
2017-Oct-13 11:30N 37°52' E 023°32'0 0.0
2017-Oct-13 11:00N 37°52' E 023°32'0 0.0
2017-Oct-13 10:30N 37°52' E 023°32'0 0.1
2017-Oct-13 10:00N 37°52' E 023°32'0 0.0
2017-Oct-13 09:30N 37°52' E 023°32'0 0.0
2017-Oct-13 09:00N 37°52' E 023°32'0 0.1
2017-Oct-13 08:30N 37°53' E 023°32'0 0.1
2017-Oct-13 08:00N 37°52' E 023°32'0 0.0
2017-Oct-13 07:30N 37°52' E 023°32'0 0.0
2017-Oct-13 07:00N 37°53' E 023°32'0 0.0
2017-Oct-13 06:30N 37°53' E 023°32'0 0.1
2017-Oct-13 06:00N 37°52' E 023°32'0 0.0
2017-Oct-13 05:27N 37°52' E 023°32'0 0.1
2017-Oct-13 05:00N 37°52' E 023°32'0 0.0
2017-Oct-13 04:30N 37°53' E 023°32'0 0.0
2017-Oct-13 04:00N 37°53' E 023°32'0 0.0
2017-Oct-13 03:30N 37°53' E 023°32'0 0.0
2017-Oct-13 03:00N 37°53' E 023°32'0 0.1
2017-Oct-13 02:30N 37°52' E 023°32'0 0.0
2017-Oct-13 02:00N 37°52' E 023°32'0 0.0
2017-Oct-13 01:30N 37°52' E 023°32'0 0.1
2017-Oct-13 01:00N 37°52' E 023°32'0 0.0
2017-Oct-13 00:30N 37°52' E 023°32'0 0.0
2017-Oct-13 00:00N 37°52' E 023°32'0 0.0
2017-Oct-12 23:30N 37°52' E 023°32'0 0.1
2017-Oct-12 23:00N 37°53' E 023°32'0 0.0
2017-Oct-12 22:30N 37°52' E 023°32'0 0.0
2017-Oct-12 22:00N 37°53' E 023°32'0 0.0
2017-Oct-12 21:30N 37°52' E 023°32'0 0.1
2017-Oct-12 21:00N 37°53' E 023°32'0 0.1
2017-Oct-12 20:30N 37°52' E 023°32'0 0.1
2017-Oct-12 20:00N 37°53' E 023°32'0 0.1
2017-Oct-12 19:30N 37°52' E 023°32'0 0.0
2017-Oct-12 19:00N 37°52' E 023°32'0 0.0
2017-Oct-12 18:30N 37°52' E 023°32'0 0.0
2017-Oct-12 18:00N 37°52' E 023°32'0 0.2
2017-Oct-12 17:30N 37°53' E 023°32'0 0.1
2017-Oct-12 17:00N 37°53' E 023°32'0 0.1
2017-Oct-12 16:30N 37°53' E 023°32'0 0.0
2017-Oct-12 16:00N 37°53' E 023°32'0 0.0
2017-Oct-12 15:30N 37°53' E 023°32'0 0.2
2017-Oct-12 15:00N 37°53' E 023°32'0 0.0
2017-Oct-12 14:30N 37°53' E 023°32'0 0.2
2017-Oct-12 14:00N 37°53' E 023°32'0 0.2
2017-Oct-12 13:30N 37°53' E 023°32'0 0.0
2017-Oct-12 13:00N 37°53' E 023°32'0 0.0
2017-Oct-12 12:28N 37°53' E 023°32'0 0.0
2017-Oct-12 11:55N 37°53' E 023°32'0 0.1
2017-Oct-12 11:28N 37°53' E 023°32'0 0.0
2017-Oct-12 10:58N 37°53' E 023°32'0 0.0
2017-Oct-12 10:28N 37°53' E 023°32'0 0.0
2017-Oct-12 09:58N 37°53' E 023°32'0 0.2
2017-Oct-12 09:25N 37°53' E 023°32'0 0.2
2017-Oct-12 08:58N 37°52' E 023°32'0 0.1
2017-Oct-12 08:28N 37°52' E 023°32'0 0.0
2017-Oct-12 06:55N 37°53' E 023°32'0 0.0
2017-Oct-12 06:28N 37°52' E 023°32'0 0.1
2017-Oct-12 05:58N 37°52' E 023°32'0 0.0
2017-Oct-12 05:28N 37°52' E 023°32'0 0.0
2017-Oct-12 04:58N 37°52' E 023°32'0 0.0
2017-Oct-12 04:28N 37°52' E 023°32'0 0.0
2017-Oct-12 03:58N 37°52' E 023°32'0 0.0
2017-Oct-12 03:28N 37°52' E 023°32'0 0.0
2017-Oct-12 02:58N 37°52' E 023°32'0 0.0
2017-Oct-12 02:28N 37°52' E 023°32'0 0.1
2017-Oct-12 01:58N 37°52' E 023°32'0 0.0
2017-Oct-12 01:28N 37°52' E 023°32'0 0.0
2017-Oct-12 00:58N 37°52' E 023°32'0 0.0
2017-Oct-12 00:25N 37°52' E 023°32'0 0.0
2017-Oct-11 23:52N 37°52' E 023°32'0 0.0
2017-Oct-11 23:28N 37°52' E 023°32'0 0.0
2017-Oct-11 22:58N 37°52' E 023°32'0 0.1
2017-Oct-11 22:28N 37°52' E 023°32'0 0.1
2017-Oct-11 21:59N 37°52' E 023°32'0 0.0
2017-Oct-11 21:29N 37°52' E 023°32'0 0.1
2017-Oct-11 20:59N 37°53' E 023°32'0 0.1
2017-Oct-11 20:29N 37°52' E 023°32'0 0.1
2017-Oct-11 19:59N 37°53' E 023°32'0 0.0
2017-Oct-11 19:26N 37°53' E 023°32'0 0.0
2017-Oct-11 18:59N 37°53' E 023°32'0 0.0
2017-Oct-11 18:29N 37°53' E 023°32'0 0.0
2017-Oct-11 17:59N 37°53' E 023°32'0 0.0
2017-Oct-11 17:29N 37°53' E 023°32'0 0.0
2017-Oct-11 16:59N 37°53' E 023°32'0 0.0
2017-Oct-11 00:00N 37°53' E 023°32'0 0.0
2017-Oct-10 23:30N 37°53' E 023°32'0 0.0
2017-Oct-10 23:00N 37°53' E 023°32'0 0.0
2017-Oct-10 22:30N 37°53' E 023°32'0 0.0
2017-Oct-10 22:00N 37°53' E 023°32'0 0.1
2017-Oct-10 21:30N 37°53' E 023°32'0 0.1
2017-Oct-10 21:00N 37°53' E 023°32'0 0.0
2017-Oct-10 20:30N 37°53' E 023°32'0 0.0
2017-Oct-10 20:00N 37°53' E 023°32'0 0.0
2017-Oct-10 19:30N 37°53' E 023°32'0 0.0
2017-Oct-10 19:00N 37°53' E 023°32'0 0.0
2017-Oct-10 18:30N 37°53' E 023°32'0 0.0
2017-Oct-10 18:00N 37°53' E 023°32'0 0.0
2017-Oct-10 17:24N 37°53' E 023°32'0 0.0
2017-Oct-10 17:00N 37°53' E 023°32'0 0.0
2017-Oct-10 16:30N 37°53' E 023°32'0 0.0
2017-Oct-10 16:00N 37°53' E 023°32'0 0.0
2017-Oct-10 15:30N 37°53' E 023°32'0 0.0
2017-Oct-10 15:00N 37°53' E 023°32'0 0.0
2017-Oct-10 13:48N 37°53' E 023°32'0 0.0
2017-Oct-10 13:30N 37°53' E 023°32'0 0.0
2017-Oct-10 13:00N 37°53' E 023°32'0 0.0
2017-Oct-10 12:27N 37°53' E 023°32'0 0.0
2017-Oct-10 11:58N 37°53' E 023°32'0 0.0
2017-Oct-10 11:28N 37°53' E 023°32'0 0.0
2017-Oct-10 10:52N 37°53' E 023°32'0 0.0
2017-Oct-10 10:28N 37°53' E 023°32'0 0.0
2017-Oct-10 09:55N 37°53' E 023°32'0 0.0
2017-Oct-10 09:28N 37°53' E 023°32'0 0.1
2017-Oct-10 08:39N 37°53' E 023°32'0 0.1
2017-Oct-10 08:30N 37°53' E 023°32'0 0.0
2017-Oct-10 08:00N 37°53' E 023°32'0 0.0
2017-Oct-10 07:30N 37°53' E 023°32'0 0.0
2017-Oct-10 07:00N 37°53' E 023°32'0 0.0
2017-Oct-10 06:30N 37°52' E 023°32'0 0.0
2017-Oct-10 06:00N 37°52' E 023°32'0 0.0
2017-Oct-10 05:30N 37°52' E 023°32'0 0.0
2017-Oct-10 05:00N 37°52' E 023°32'0 0.0
2017-Oct-10 04:28N 37°53' E 023°32'0 0.0
2017-Oct-10 03:58N 37°52' E 023°32'0 0.0
2017-Oct-10 03:28N 37°52' E 023°32'0 0.0
2017-Oct-10 02:58N 37°52' E 023°32'0 0.0
2017-Oct-10 02:28N 37°52' E 023°32'0 0.0
2017-Oct-10 01:58N 37°53' E 023°32'0 0.0
2017-Oct-10 01:28N 37°52' E 023°32'0 0.0
2017-Oct-10 00:58N 37°52' E 023°32'0 0.0
2017-Oct-10 00:28N 37°52' E 023°32'0 0.0
2017-Oct-09 23:58N 37°53' E 023°32'0 0.0
2017-Oct-09 23:28N 37°53' E 023°32'0 0.1
2017-Oct-09 22:58N 37°53' E 023°32'0 0.0
2017-Oct-09 22:28N 37°53' E 023°32'0 0.0
2017-Oct-09 21:58N 37°53' E 023°32'0 0.1
2017-Oct-09 21:28N 37°53' E 023°32'0 0.0
2017-Oct-09 20:58N 37°53' E 023°32'0 0.1
2017-Oct-09 20:28N 37°53' E 023°32'0 0.0
2017-Oct-09 19:58N 37°53' E 023°32'0 0.0
2017-Oct-09 19:29N 37°53' E 023°32'0 0.0
2017-Oct-09 18:59N 37°53' E 023°32'0 0.0
2017-Oct-09 18:29N 37°53' E 023°32'0 0.0
2017-Oct-09 17:59N 37°53' E 023°32'0 0.0
2017-Oct-09 17:29N 37°53' E 023°32'0 0.0
2017-Oct-09 16:59N 37°53' E 023°32'0 0.0
2017-Oct-09 16:29N 37°53' E 023°32'0 0.0
2017-Oct-09 15:59N 37°53' E 023°32'0 0.0
2017-Oct-09 15:29N 37°53' E 023°32'0 0.0
2017-Oct-09 14:59N 37°53' E 023°32'0 0.1
2017-Oct-09 14:29N 37°53' E 023°32'0 0.0
2017-Oct-09 13:59N 37°53' E 023°32'0 0.0
2017-Oct-09 13:29N 37°53' E 023°32'0 0.0
2017-Oct-09 12:59N 37°53' E 023°32'0 0.0
2017-Oct-09 12:29N 37°53' E 023°32'0 0.0
2017-Oct-09 11:59N 37°53' E 023°32'0 0.0
2017-Oct-09 11:26N 37°53' E 023°32'0 0.0
2017-Oct-09 10:59N 37°53' E 023°32'0 0.1
2017-Oct-09 10:29N 37°53' E 023°32'0 0.0
2017-Oct-09 09:59N 37°53' E 023°32'0 0.2
2017-Oct-09 09:29N 37°53' E 023°32'0 0.1
2017-Oct-09 08:59N 37°53' E 023°32'0 0.0
2017-Oct-09 08:29N 37°53' E 023°32'0 0.1
2017-Oct-09 07:59N 37°52' E 023°32'0 0.0
2017-Oct-09 07:29N 37°52' E 023°32'0 0.0
2017-Oct-09 06:59N 37°52' E 023°32'0 0.0
2017-Oct-09 06:29N 37°52' E 023°32'0 0.0
2017-Oct-09 05:59N 37°52' E 023°32'0 0.0
2017-Oct-09 05:29N 37°52' E 023°32'0 0.0
2017-Oct-09 04:59N 37°52' E 023°32'0 0.1
2017-Oct-09 04:29N 37°52' E 023°32'0 0.0
2017-Oct-09 03:59N 37°52' E 023°32'0 0.1
2017-Oct-09 03:29N 37°52' E 023°32'0 0.0
2017-Oct-09 02:59N 37°52' E 023°32'0 0.1
2017-Oct-09 02:29N 37°52' E 023°32'0 0.1
2017-Oct-09 01:59N 37°52' E 023°32'0 0.1
2017-Oct-09 01:29N 37°53' E 023°32'0 0.1
2017-Oct-09 00:59N 37°53' E 023°32'0 0.0
2017-Oct-09 00:29N 37°53' E 023°32'0 0.0
2017-Oct-08 23:59N 37°53' E 023°32'0 0.0
2017-Oct-08 23:29N 37°53' E 023°32'0 0.0
2017-Oct-08 22:59N 37°53' E 023°32'0 0.0
2017-Oct-08 22:26N 37°53' E 023°32'0 0.0
2017-Oct-08 21:59N 37°53' E 023°32'0 0.1
2017-Oct-08 21:26N 37°52' E 023°32'0 0.1
2017-Oct-08 20:59N 37°53' E 023°32'0 0.0
2017-Oct-08 20:29N 37°53' E 023°32'0 0.0
2017-Oct-08 19:59N 37°53' E 023°32'0 0.1
2017-Oct-08 19:29N 37°52' E 023°32'0 0.0
2017-Oct-08 18:59N 37°52' E 023°32'0 0.0
2017-Oct-08 18:29N 37°52' E 023°32'0 0.0
2017-Oct-08 17:59N 37°52' E 023°32'0 0.1
2017-Oct-08 17:29N 37°53' E 023°32'0 0.0
2017-Oct-08 16:59N 37°53' E 023°32'0 0.0
2017-Oct-08 16:29N 37°53' E 023°32'0 0.0
2017-Oct-08 15:56N 37°53' E 023°32'0 0.1
2017-Oct-08 15:29N 37°53' E 023°32'0 0.1
2017-Oct-08 14:59N 37°53' E 023°32'0 0.0
2017-Oct-08 14:29N 37°53' E 023°32'0 0.0
2017-Oct-08 13:59N 37°53' E 023°32'0 0.0
2017-Oct-08 13:29N 37°53' E 023°32'0 0.1
2017-Oct-08 12:59N 37°53' E 023°32'0 0.0
2017-Oct-08 12:29N 37°53' E 023°32'0 0.1
2017-Oct-08 11:59N 37°53' E 023°32'0 0.0
2017-Oct-08 11:29N 37°53' E 023°32'0 0.0
2017-Oct-08 10:59N 37°53' E 023°32'0 0.1
2017-Oct-08 10:29N 37°52' E 023°32'0 0.0
2017-Oct-08 09:59N 37°52' E 023°32'0 0.0
2017-Oct-08 09:29N 37°52' E 023°32'0 0.0
2017-Oct-08 08:59N 37°52' E 023°32'0 0.1
2017-Oct-08 08:29N 37°52' E 023°32'0 0.1
2017-Oct-08 07:59N 37°52' E 023°32'0 0.0
2017-Oct-08 07:29N 37°52' E 023°32'0 0.0
2017-Oct-08 06:59N 37°52' E 023°32'0 0.0
2017-Oct-08 06:29N 37°52' E 023°32'0 0.0
2017-Oct-08 05:59N 37°52' E 023°32'0 0.0
2017-Oct-08 05:29N 37°52' E 023°32'0 0.0
2017-Oct-08 04:59N 37°52' E 023°32'0 0.0
2017-Oct-08 04:29N 37°52' E 023°32'0 0.0
2017-Oct-08 03:59N 37°52' E 023°32'0 0.0
2017-Oct-08 03:29N 37°52' E 023°32'0 0.0
2017-Oct-08 02:59N 37°52' E 023°32'0 0.0
2017-Oct-08 02:26N 37°52' E 023°32'0 0.1
2017-Oct-08 01:59N 37°52' E 023°32'0 0.0
2017-Oct-08 01:29N 37°52' E 023°32'0 0.0
2017-Oct-08 00:59N 37°52' E 023°32'0 0.0
2017-Oct-08 00:29N 37°52' E 023°32'0 0.0
2017-Oct-07 23:59N 37°52' E 023°32'  
Track history (hours):
 
Tides and Currents Weather Stations Pressure Air Temp Water Temp Dewpoint Dewpoint Depression Visibility Wind Speed Wind Dir Waves Ship Positions

Oasis 1

Last reported at 2017-Oct-17 23:52 UTC. Time now 2017-Oct-20 08:37 UTC.
Position N 36°01' E 020°50'.

Length 109 m; draft 4.2 m.

Type: Tanker. MMSI: 356057000.

Date/timePositionNaut miles runAvg speedWind from/ knotsBaromVisibWave heightAir tempDewpointWater temp
2017-Oct-17 23:52N 36°01' E 020°50'3 7.6
2017-Oct-17 23:30N 36°01' E 020°54'6 7.8
2017-Oct-17 22:46N 36°01' E 021°01'2 8.0
2017-Oct-17 22:31N 36°01' E 021°03'4 8.0
2017-Oct-17 22:00N 36°01' E 021°08'4 7.9
2017-Oct-17 21:30N 36°01' E 021°13'122 5.9
2017-Oct-17 00:51N 36°60' E 023°27'38 7.1
2017-Oct-16 19:32N 37°35' E 023°45'3 7.9
2017-Oct-16 19:07N 37°38' E 023°43'2 7.8
2017-Oct-16 18:54N 37°39' E 023°42'3 7.7
2017-Oct-16 18:30N 37°42' E 023°41'4 7.8
2017-Oct-16 18:01N 37°46' E 023°39'4 7.6
2017-Oct-16 17:30N 37°49' E 023°36'4 7.4
2017-Oct-16 17:00N 37°52' E 023°34'1 2.6
2017-Oct-16 16:29N 37°52' E 023°32'0 0.0
2017-Oct-16 15:59N 37°52' E 023°32'0 0.0
2017-Oct-16 15:29N 37°52' E 023°32'0 0.0
2017-Oct-16 14:59N 37°52' E 023°32'0 0.1
2017-Oct-16 14:29N 37°53' E 023°32'0 0.1
2017-Oct-16 13:29N 37°52' E 023°32'0 0.0
2017-Oct-16 12:56N 37°52' E 023°32'0 0.0
2017-Oct-16 12:29N 37°52' E 023°32'0 0.0
2017-Oct-16 11:59N 37°52' E 023°32'0 0.1
2017-Oct-16 11:29N 37°52' E 023°32'0 0.1
2017-Oct-16 10:59N 37°52' E 023°32'0 0.0
2017-Oct-16 10:30N 37°52' E 023°32'0 0.0
2017-Oct-16 09:57N 37°52' E 023°32'0 0.0
2017-Oct-16 09:30N 37°52' E 023°32'0 0.0
2017-Oct-16 08:57N 37°52' E 023°32'0 0.0
2017-Oct-16 08:30N 37°52' E 023°32'0 0.0
2017-Oct-16 07:59N 37°52' E 023°32'0 0.0
2017-Oct-16 07:29N 37°52' E 023°32'0 0.0
2017-Oct-16 06:59N 37°52' E 023°32'0 0.0
2017-Oct-16 06:29N 37°52' E 023°32'0 0.0
2017-Oct-16 05:59N 37°52' E 023°32'0 0.0
2017-Oct-16 05:29N 37°52' E 023°32'0 0.0
2017-Oct-16 04:59N 37°52' E 023°32'0 0.0
2017-Oct-16 04:29N 37°52' E 023°32'0 0.0
2017-Oct-16 03:59N 37°52' E 023°32'0 0.0
2017-Oct-16 03:29N 37°52' E 023°32'0 0.1
2017-Oct-16 02:59N 37°52' E 023°32'0 0.0
2017-Oct-16 02:29N 37°52' E 023°32'0 0.0
2017-Oct-16 01:59N 37°52' E 023°32'0 0.0
2017-Oct-16 01:29N 37°52' E 023°32'0 0.0
2017-Oct-16 00:59N 37°52' E 023°32'0 0.0
2017-Oct-16 00:29N 37°52' E 023°32'0 0.1
2017-Oct-15 23:59N 37°52' E 023°32'0 0.0
2017-Oct-15 23:29N 37°52' E 023°32'0 0.0
2017-Oct-15 22:59N 37°52' E 023°32'0 0.0
2017-Oct-15 22:29N 37°52' E 023°32'0 0.0
2017-Oct-15 21:59N 37°52' E 023°32'0 0.0
2017-Oct-15 21:29N 37°52' E 023°32'0 0.0
2017-Oct-15 20:56N 37°52' E 023°32'0 0.0
2017-Oct-15 20:29N 37°52' E 023°32'0 0.0
2017-Oct-15 19:59N 37°52' E 023°32'0 0.0
2017-Oct-15 19:29N 37°52' E 023°32'0 0.0
2017-Oct-15 18:59N 37°52' E 023°32'0 0.0
2017-Oct-15 18:29N 37°52' E 023°32'0 0.0
2017-Oct-15 17:59N 37°52' E 023°32'0 0.0
2017-Oct-15 17:29N 37°52' E 023°32'0 0.0
2017-Oct-15 16:59N 37°52' E 023°32'0 0.0
2017-Oct-15 16:29N 37°52' E 023°32'0 0.0
2017-Oct-15 15:59N 37°52' E 023°32'0 0.0
2017-Oct-15 15:29N 37°52' E 023°32'0 0.0
2017-Oct-15 14:59N 37°52' E 023°32'0 0.0
2017-Oct-15 14:00N 37°52' E 023°32'0 0.2
2017-Oct-15 13:30N 37°52' E 023°32'0 0.2
2017-Oct-15 13:00N 37°52' E 023°32'0 0.0
2017-Oct-15 12:27N 37°52' E 023°32'0 0.1
2017-Oct-15 12:00N 37°52' E 023°32'0 0.1
2017-Oct-15 11:30N 37°52' E 023°32'0 0.1
2017-Oct-15 11:00N 37°52' E 023°32'0 0.0
2017-Oct-15 10:30N 37°52' E 023°32'0 0.1
2017-Oct-15 10:00N 37°52' E 023°32'0 0.1
2017-Oct-15 09:30N 37°52' E 023°32'0 0.1
2017-Oct-15 09:00N 37°52' E 023°32'0 0.0
2017-Oct-15 08:30N 37°52' E 023°32'0 0.0
2017-Oct-15 08:00N 37°52' E 023°32'0 0.0
2017-Oct-15 07:30N 37°52' E 023°32'0 0.0
2017-Oct-15 07:00N 37°52' E 023°32'0 0.0
2017-Oct-15 06:30N 37°52' E 023°32'0 0.0
2017-Oct-15 06:00N 37°52' E 023°32'0 0.0
2017-Oct-15 05:30N 37°52' E 023°32'0 0.0
2017-Oct-15 05:00N 37°52' E 023°32'0 0.1
2017-Oct-15 04:30N 37°52' E 023°32'0 0.1
2017-Oct-15 04:00N 37°52' E 023°32'0 0.1
2017-Oct-15 03:30N 37°52' E 023°32'0 0.1
2017-Oct-15 03:00N 37°52' E 023°32'0 0.0
2017-Oct-15 02:30N 37°52' E 023°32'0 0.0
2017-Oct-15 02:00N 37°52' E 023°32'0 0.0
2017-Oct-15 01:27N 37°52' E 023°32'0 0.0
2017-Oct-15 01:00N 37°52' E 023°32'0 0.1
2017-Oct-15 00:30N 37°52' E 023°32'0 0.0
2017-Oct-15 00:00N 37°52' E 023°32'0 0.0
2017-Oct-14 23:30N 37°52' E 023°32'0 0.0
2017-Oct-14 23:00N 37°52' E 023°32'0 0.0
2017-Oct-14 22:30N 37°52' E 023°32'0 0.0
2017-Oct-14 22:00N 37°52' E 023°32'0 0.0
2017-Oct-14 21:30N 37°52' E 023°32'0 0.0
2017-Oct-14 21:00N 37°52' E 023°32'0 0.1
2017-Oct-14 20:27N 37°53' E 023°32'0 0.0
2017-Oct-14 20:00N 37°53' E 023°32'0 0.0
2017-Oct-14 19:30N 37°53' E 023°32'0 0.0
2017-Oct-14 19:00N 37°53' E 023°32'0 0.0
2017-Oct-14 18:30N 37°53' E 023°32'0 0.1
2017-Oct-14 18:00N 37°53' E 023°32'0 0.0
2017-Oct-14 17:30N 37°53' E 023°32'0 0.1
2017-Oct-14 17:00N 37°52' E 023°32'0 0.1
2017-Oct-14 16:30N 37°52' E 023°32'0 0.1
2017-Oct-14 16:00N 37°52' E 023°32'0 0.0
2017-Oct-14 15:30N 37°52' E 023°32'0 0.0
2017-Oct-14 15:00N 37°52' E 023°32'0 0.0
2017-Oct-14 14:30N 37°52' E 023°32'0 0.0
2017-Oct-14 14:00N 37°52' E 023°32'0 0.0
2017-Oct-14 13:30N 37°52' E 023°32'0 0.0
2017-Oct-14 13:00N 37°52' E 023°32'0 0.0
2017-Oct-14 12:30N 37°52' E 023°32'0 0.0
2017-Oct-14 11:57N 37°52' E 023°32'0 0.0
2017-Oct-14 11:30N 37°52' E 023°32'0 0.0
2017-Oct-14 11:00N 37°52' E 023°32'0 0.0
2017-Oct-14 10:30N 37°52' E 023°32'0 0.0
2017-Oct-14 10:00N 37°52' E 023°32'0 0.0
2017-Oct-14 09:30N 37°52' E 023°32'0 0.1
2017-Oct-14 09:00N 37°52' E 023°32'0 0.0
2017-Oct-14 08:30N 37°52' E 023°32'0 0.0
2017-Oct-14 08:00N 37°52' E 023°32'0 0.0
2017-Oct-14 07:30N 37°52' E 023°32'0 0.1
2017-Oct-14 07:00N 37°52' E 023°32'0 0.0
2017-Oct-14 06:30N 37°52' E 023°32'0 0.0
2017-Oct-14 06:00N 37°52' E 023°32'0 0.0
2017-Oct-14 05:30N 37°52' E 023°32'0 0.0
2017-Oct-14 05:00N 37°52' E 023°32'0 0.0
2017-Oct-14 04:30N 37°52' E 023°32'0 0.0
2017-Oct-14 04:00N 37°52' E 023°32'0 0.1
2017-Oct-14 03:30N 37°52' E 023°32'0 0.0
2017-Oct-14 03:00N 37°52' E 023°32'0 0.0
2017-Oct-14 02:30N 37°52' E 023°32'0 0.0
2017-Oct-14 02:00N 37°52' E 023°32'0 0.0
2017-Oct-14 01:30N 37°52' E 023°32'0 0.0
2017-Oct-14 01:00N 37°52' E 023°32'0 0.0
2017-Oct-14 00:30N 37°52' E 023°32'0 0.0
2017-Oct-14 00:00N 37°52' E 023°32'0 0.1
2017-Oct-13 23:30N 37°52' E 023°32'0 0.0
2017-Oct-13 23:00N 37°52' E 023°32'0 0.0
2017-Oct-13 22:30N 37°52' E 023°32'0 0.0
2017-Oct-13 22:00N 37°52' E 023°32'0 0.0
2017-Oct-13 21:30N 37°52' E 023°32'0 0.1
2017-Oct-13 21:00N 37°52' E 023°32'0 0.1
2017-Oct-13 20:30N 37°52' E 023°32'0 0.0
2017-Oct-13 20:00N 37°52' E 023°32'0 0.0
2017-Oct-13 19:30N 37°52' E 023°32'0 0.0
2017-Oct-13 19:00N 37°52' E 023°32'0 0.0
2017-Oct-13 18:30N 37°52' E 023°32'0 0.0
2017-Oct-13 18:00N 37°52' E 023°32'0 0.1
2017-Oct-13 17:30N 37°52' E 023°32'0 0.0
2017-Oct-13 17:00N 37°52' E 023°32'0 0.0
2017-Oct-13 16:30N 37°52' E 023°32'0 0.0
2017-Oct-13 16:00N 37°52' E 023°32'0 0.0
2017-Oct-13 15:30N 37°52' E 023°32'0 0.0
2017-Oct-13 15:00N 37°52' E 023°32'0 0.0
2017-Oct-13 14:30N 37°52' E 023°32'0 0.0
2017-Oct-13 14:00N 37°52' E 023°32'0 0.1
2017-Oct-13 13:30N 37°52' E 023°32'0 0.1
2017-Oct-13 13:00N 37°52' E 023°32'0 0.0
2017-Oct-13 12:30N 37°52' E 023°32'0 0.0
2017-Oct-13 11:57N 37°52' E 023°32'0 0.1
2017-Oct-13 11:30N 37°52' E 023°32'0 0.0
2017-Oct-13 11:00N 37°52' E 023°32'0 0.0
2017-Oct-13 10:30N 37°52' E 023°32'0 0.1
2017-Oct-13 10:00N 37°52' E 023°32'0 0.0
2017-Oct-13 09:30N 37°52' E 023°32'0 0.0
2017-Oct-13 09:00N 37°52' E 023°32'0 0.1
2017-Oct-13 08:30N 37°53' E 023°32'0 0.1
2017-Oct-13 08:00N 37°52' E 023°32'0 0.0
2017-Oct-13 07:30N 37°52' E 023°32'0 0.0
2017-Oct-13 07:00N 37°53' E 023°32'0 0.0
2017-Oct-13 06:30N 37°53' E 023°32'0 0.1
2017-Oct-13 06:00N 37°52' E 023°32'0 0.0
2017-Oct-13 05:27N 37°52' E 023°32'0 0.1
2017-Oct-13 05:00N 37°52' E 023°32'0 0.0
2017-Oct-13 04:30N 37°53' E 023°32'0 0.0
2017-Oct-13 04:00N 37°53' E 023°32'0 0.0
2017-Oct-13 03:30N 37°53' E 023°32'0 0.0
2017-Oct-13 03:00N 37°53' E 023°32'0 0.1
2017-Oct-13 02:30N 37°52' E 023°32'0 0.0
2017-Oct-13 02:00N 37°52' E 023°32'0 0.0
2017-Oct-13 01:30N 37°52' E 023°32'0 0.1
2017-Oct-13 01:00N 37°52' E 023°32'0 0.0
2017-Oct-13 00:30N 37°52' E 023°32'0 0.0
2017-Oct-13 00:00N 37°52' E 023°32'0 0.0
2017-Oct-12 23:30N 37°52' E 023°32'0 0.1
2017-Oct-12 23:00N 37°53' E 023°32'0 0.0
2017-Oct-12 22:30N 37°52' E 023°32'0 0.0
2017-Oct-12 22:00N 37°53' E 023°32'0 0.0
2017-Oct-12 21:30N 37°52' E 023°32'0 0.1
2017-Oct-12 21:00N 37°53' E 023°32'0 0.1
2017-Oct-12 20:30N 37°52' E 023°32'0 0.1
2017-Oct-12 20:00N 37°53' E 023°32'0 0.1
2017-Oct-12 19:30N 37°52' E 023°32'0 0.0
2017-Oct-12 19:00N 37°52' E 023°32'0 0.0
2017-Oct-12 18:30N 37°52' E 023°32'0 0.0
2017-Oct-12 18:00N 37°52' E 023°32'0 0.2
2017-Oct-12 17:30N 37°53' E 023°32'0 0.1
2017-Oct-12 17:00N 37°53' E 023°32'0 0.1
2017-Oct-12 16:30N 37°53' E 023°32'0 0.0
2017-Oct-12 16:00N 37°53' E 023°32'0 0.0
2017-Oct-12 15:30N 37°53' E 023°32'0 0.2
2017-Oct-12 15:00N 37°53' E 023°32'0 0.0
2017-Oct-12 14:30N 37°53' E 023°32'0 0.2
2017-Oct-12 14:00N 37°53' E 023°32'0 0.2
2017-Oct-12 13:30N 37°53' E 023°32'0 0.0
2017-Oct-12 13:00N 37°53' E 023°32'0 0.0
2017-Oct-12 12:28N 37°53' E 023°32'0 0.0
2017-Oct-12 11:55N 37°53' E 023°32'0 0.1
2017-Oct-12 11:28N 37°53' E 023°32'0 0.0
2017-Oct-12 10:58N 37°53' E 023°32'0 0.0
2017-Oct-12 10:28N 37°53' E 023°32'0 0.0
2017-Oct-12 09:58N 37°53' E 023°32'0 0.2
2017-Oct-12 09:25N 37°53' E 023°32'0 0.2
2017-Oct-12 08:58N 37°52' E 023°32'0 0.1
2017-Oct-12 08:28N 37°52' E 023°32'0 0.0
2017-Oct-12 06:55N 37°53' E 023°32'0 0.0
2017-Oct-12 06:28N 37°52' E 023°32'0 0.1
2017-Oct-12 05:58N 37°52' E 023°32'0 0.0
2017-Oct-12 05:28N 37°52' E 023°32'0 0.0
2017-Oct-12 04:58N 37°52' E 023°32'0 0.0
2017-Oct-12 04:28N 37°52' E 023°32'0 0.0
2017-Oct-12 03:58N 37°52' E 023°32'0 0.0
2017-Oct-12 03:28N 37°52' E 023°32'0 0.0
2017-Oct-12 02:58N 37°52' E 023°32'0 0.0
2017-Oct-12 02:28N 37°52' E 023°32'0 0.1
2017-Oct-12 01:58N 37°52' E 023°32'0 0.0
2017-Oct-12 01:28N 37°52' E 023°32'0 0.0
2017-Oct-12 00:58N 37°52' E 023°32'0 0.0
2017-Oct-12 00:25N 37°52' E 023°32'0 0.0
2017-Oct-11 23:52N 37°52' E 023°32'0 0.0
2017-Oct-11 23:28N 37°52' E 023°32'0 0.0
2017-Oct-11 22:58N 37°52' E 023°32'0 0.1
2017-Oct-11 22:28N 37°52' E 023°32'0 0.1
2017-Oct-11 21:59N 37°52' E 023°32'0 0.0
2017-Oct-11 21:29N 37°52' E 023°32'0 0.1
2017-Oct-11 20:59N 37°53' E 023°32'0 0.1
2017-Oct-11 20:29N 37°52' E 023°32'0 0.1
2017-Oct-11 19:59N 37°53' E 023°32'0 0.0
2017-Oct-11 19:26N 37°53' E 023°32'0 0.0
2017-Oct-11 18:59N 37°53' E 023°32'0 0.0
2017-Oct-11 18:29N 37°53' E 023°32'0 0.0
2017-Oct-11 17:59N 37°53' E 023°32'0 0.0
2017-Oct-11 17:29N 37°53' E 023°32'0 0.0
2017-Oct-11 16:59N 37°53' E 023°32'0 0.0
2017-Oct-11 00:00N 37°53' E 023°32'0 0.0
2017-Oct-10 23:30N 37°53' E 023°32'0 0.0
2017-Oct-10 23:00N 37°53' E 023°32'0 0.0
2017-Oct-10 22:30N 37°53' E 023°32'0 0.0
2017-Oct-10 22:00N 37°53' E 023°32'0 0.1
2017-Oct-10 21:30N 37°53' E 023°32'0 0.1
2017-Oct-10 21:00N 37°53' E 023°32'0 0.0
2017-Oct-10 20:30N 37°53' E 023°32'0 0.0
2017-Oct-10 20:00N 37°53' E 023°32'0 0.0
2017-Oct-10 19:30N 37°53' E 023°32'0 0.0
2017-Oct-10 19:00N 37°53' E 023°32'0 0.0
2017-Oct-10 18:30N 37°53' E 023°32'0 0.0
2017-Oct-10 18:00N 37°53' E 023°32'0 0.0
2017-Oct-10 17:24N 37°53' E 023°32'0 0.0
2017-Oct-10 17:00N 37°53' E 023°32'0 0.0
2017-Oct-10 16:30N 37°53' E 023°32'0 0.0
2017-Oct-10 16:00N 37°53' E 023°32'0 0.0
2017-Oct-10 15:30N 37°53' E 023°32'0 0.0
2017-Oct-10 15:00N 37°53' E 023°32'0 0.0
2017-Oct-10 13:48N 37°53' E 023°32'0 0.0
2017-Oct-10 13:30N 37°53' E 023°32'0 0.0
2017-Oct-10 13:00N 37°53' E 023°32'0 0.0
2017-Oct-10 12:27N 37°53' E 023°32'0 0.0
2017-Oct-10 11:58N 37°53' E 023°32'0 0.0
2017-Oct-10 11:28N 37°53' E 023°32'0 0.0
2017-Oct-10 10:52N 37°53' E 023°32'0 0.0
2017-Oct-10 10:28N 37°53' E 023°32'0 0.0
2017-Oct-10 09:55N 37°53' E 023°32'0 0.0
2017-Oct-10 09:28N 37°53' E 023°32'0 0.1
2017-Oct-10 08:39N 37°53' E 023°32'0 0.1
2017-Oct-10 08:30N 37°53' E 023°32'0 0.0
2017-Oct-10 08:00N 37°53' E 023°32'0 0.0
2017-Oct-10 07:30N 37°53' E 023°32'0 0.0
2017-Oct-10 07:00N 37°53' E 023°32'0 0.0
2017-Oct-10 06:30N 37°52' E 023°32'0 0.0
2017-Oct-10 06:00N 37°52' E 023°32'0 0.0
2017-Oct-10 05:30N 37°52' E 023°32'0 0.0
2017-Oct-10 05:00N 37°52' E 023°32'0 0.0
2017-Oct-10 04:28N 37°53' E 023°32'0 0.0
2017-Oct-10 03:58N 37°52' E 023°32'0 0.0
2017-Oct-10 03:28N 37°52' E 023°32'0 0.0
2017-Oct-10 02:58N 37°52' E 023°32'0 0.0
2017-Oct-10 02:28N 37°52' E 023°32'0 0.0
2017-Oct-10 01:58N 37°53' E 023°32'0 0.0
2017-Oct-10 01:28N 37°52' E 023°32'0 0.0
2017-Oct-10 00:58N 37°52' E 023°32'0 0.0
2017-Oct-10 00:28N 37°52' E 023°32'0 0.0
2017-Oct-09 23:58N 37°53' E 023°32'0 0.0
2017-Oct-09 23:28N 37°53' E 023°32'0 0.1
2017-Oct-09 22:58N 37°53' E 023°32'0 0.0
2017-Oct-09 22:28N 37°53' E 023°32'0 0.0
2017-Oct-09 21:58N 37°53' E 023°32'0 0.1
2017-Oct-09 21:28N 37°53' E 023°32'0 0.0
2017-Oct-09 20:58N 37°53' E 023°32'0 0.1
2017-Oct-09 20:28N 37°53' E 023°32'0 0.0
2017-Oct-09 19:58N 37°53' E 023°32'0 0.0
2017-Oct-09 19:29N 37°53' E 023°32'0 0.0
2017-Oct-09 18:59N 37°53' E 023°32'0 0.0
2017-Oct-09 18:29N 37°53' E 023°32'0 0.0
2017-Oct-09 17:59N 37°53' E 023°32'0 0.0
2017-Oct-09 17:29N 37°53' E 023°32'0 0.0
2017-Oct-09 16:59N 37°53' E 023°32'0 0.0
2017-Oct-09 16:29N 37°53' E 023°32'0 0.0
2017-Oct-09 15:59N 37°53' E 023°32'0 0.0
2017-Oct-09 15:29N 37°53' E 023°32'0 0.0
2017-Oct-09 14:59N 37°53' E 023°32'0 0.1
2017-Oct-09 14:29N 37°53' E 023°32'0 0.0
2017-Oct-09 13:59N 37°53' E 023°32'0 0.0
2017-Oct-09 13:29N 37°53' E 023°32'0 0.0
2017-Oct-09 12:59N 37°53' E 023°32'0 0.0
2017-Oct-09 12:29N 37°53' E 023°32'0 0.0
2017-Oct-09 11:59N 37°53' E 023°32'0 0.0
2017-Oct-09 11:26N 37°53' E 023°32'0 0.0
2017-Oct-09 10:59N 37°53' E 023°32'0 0.1
2017-Oct-09 10:29N 37°53' E 023°32'0 0.0
2017-Oct-09 09:59N 37°53' E 023°32'0 0.2
2017-Oct-09 09:29N 37°53' E 023°32'0 0.1
2017-Oct-09 08:59N 37°53' E 023°32'0 0.0
2017-Oct-09 08:29N 37°53' E 023°32'0 0.1
2017-Oct-09 07:59N 37°52' E 023°32'0 0.0
2017-Oct-09 07:29N 37°52' E 023°32'0 0.0
2017-Oct-09 06:59N 37°52' E 023°32'0 0.0
2017-Oct-09 06:29N 37°52' E 023°32'0 0.0
2017-Oct-09 05:59N 37°52' E 023°32'0 0.0
2017-Oct-09 05:29N 37°52' E 023°32'0 0.0
2017-Oct-09 04:59N 37°52' E 023°32'0 0.1
2017-Oct-09 04:29N 37°52' E 023°32'0 0.0
2017-Oct-09 03:59N 37°52' E 023°32'0 0.1
2017-Oct-09 03:29N 37°52' E 023°32'0 0.0
2017-Oct-09 02:59N 37°52' E 023°32'0 0.1
2017-Oct-09 02:29N 37°52' E 023°32'0 0.1
2017-Oct-09 01:59N 37°52' E 023°32'0 0.1
2017-Oct-09 01:29N 37°53' E 023°32'0 0.1
2017-Oct-09 00:59N 37°53' E 023°32'0 0.0
2017-Oct-09 00:29N 37°53' E 023°32'0 0.0
2017-Oct-08 23:59N 37°53' E 023°32'0 0.0
2017-Oct-08 23:29N 37°53' E 023°32'0 0.0
2017-Oct-08 22:59N 37°53' E 023°32'0 0.0
2017-Oct-08 22:26N 37°53' E 023°32'0 0.0
2017-Oct-08 21:59N 37°53' E 023°32'0 0.1
2017-Oct-08 21:26N 37°52' E 023°32'0 0.1
2017-Oct-08 20:59N 37°53' E 023°32'0 0.0
2017-Oct-08 20:29N 37°53' E 023°32'0 0.0
2017-Oct-08 19:59N 37°53' E 023°32'0 0.1
2017-Oct-08 19:29N 37°52' E 023°32'0 0.0
2017-Oct-08 18:59N 37°52' E 023°32'0 0.0
2017-Oct-08 18:29N 37°52' E 023°32'0 0.0
2017-Oct-08 17:59N 37°52' E 023°32'0 0.1
2017-Oct-08 17:29N 37°53' E 023°32'0 0.0
2017-Oct-08 16:59N 37°53' E 023°32'0 0.0
2017-Oct-08 16:29N 37°53' E 023°32'0 0.0
2017-Oct-08 15:56N 37°53' E 023°32'0 0.1
2017-Oct-08 15:29N 37°53' E 023°32'0 0.1
2017-Oct-08 14:59N 37°53' E 023°32'0 0.0
2017-Oct-08 14:29N 37°53' E 023°32'0 0.0
2017-Oct-08 13:59N 37°53' E 023°32'0 0.0
2017-Oct-08 13:29N 37°53' E 023°32'0 0.1
2017-Oct-08 12:59N 37°53' E 023°32'0 0.0
2017-Oct-08 12:29N 37°53' E 023°32'0 0.1
2017-Oct-08 11:59N 37°53' E 023°32'0 0.0
2017-Oct-08 11:29N 37°53' E 023°32'0 0.0
2017-Oct-08 10:59N 37°53' E 023°32'0 0.1
2017-Oct-08 10:29N 37°52' E 023°32'0 0.0
2017-Oct-08 09:59N 37°52' E 023°32'0 0.0
2017-Oct-08 09:29N 37°52' E 023°32'0 0.0
2017-Oct-08 08:59N 37°52' E 023°32'0 0.1
2017-Oct-08 08:29N 37°52' E 023°32'0 0.1
2017-Oct-08 07:59N 37°52' E 023°32'0 0.0
2017-Oct-08 07:29N 37°52' E 023°32'0 0.0
2017-Oct-08 06:59N 37°52' E 023°32'0 0.0
2017-Oct-08 06:29N 37°52' E 023°32'0 0.0
2017-Oct-08 05:59N 37°52' E 023°32'0 0.0
2017-Oct-08 05:29N 37°52' E 023°32'0 0.0
2017-Oct-08 04:59N 37°52' E 023°32'0 0.0
2017-Oct-08 04:29N 37°52' E 023°32'0 0.0
2017-Oct-08 03:59N 37°52' E 023°32'0 0.0
2017-Oct-08 03:29N 37°52' E 023°32'0 0.0
2017-Oct-08 02:59N 37°52' E 023°32'0 0.0
2017-Oct-08 02:26N 37°52' E 023°32'0 0.1
2017-Oct-08 01:59N 37°52' E 023°32'0 0.0
2017-Oct-08 01:29N 37°52' E 023°32'0 0.0
2017-Oct-08 00:59N 37°52' E 023°32'0 0.0
2017-Oct-08 00:29N 37°52' E 023°32'0 0.0
2017-Oct-07 23:59N 37°52' E 023°32'  

Dump ship's entire track history